KAST Airport (Astoria Rgnl) Information

FAA: AST - ICAO: KAST

KAST Airport Location

State Oregon
County Clatsop
City Astoria
KAST Airport is 3 miles southwest of Astoria, OR.
Latitude 46-09-28.7000N
Longitude 123-52-43.0000W
Elevation 14ft

KAST Airport METARs

METAR KAST 262246Z AUTO 36005KT 9SM OVC005 11/10 A3020 RMK AO2 T01110100
Altimeter 30.20"
Temperature 11.1°C (52.0°F)
Wind 360° at 5KT
Clouds overcast at 500ft
Visibility 9.0mi
Time observed: 2021-11-26T22:46:00Z

KAST Airport Details

Status Operational
Activation July 1938
Ownership Public
Usage Public
Chart SEATTLE
ATC on-site No
Beacon schedule sunset-sunrise
Beacon color clear green

KAST Airport Contacts

Owner PORT OF ASTORIA
Owner address 10 PIER 1, SUITE 103, ASTORIA, OR 97103
Owner phone 503-741-3300
Manager DAVID HUBBARD
Manager address 1324 SE 174 RD, WILBURTON, OK 74578
Manager phone 901-581-2228

KAST Airport (Astoria Rgnl) Radio Frequencies

KAST (Airport) Radio Frequencies

UNICOM 122.8
Common traffic advisory frequency (CTAF) 122.8